Justas Slavickas

Скаут - Zalgiris
22 Фев 2028
Вторник
Продолжить

Характер

Адаптивность (17) Амбиции (14) Скандальность (4) Верность (16) Стрессоустойчивость (13) Профессионализм (7) Благородство (2) Темперамент (4)

Профиль

Стиль управления Демократичный
Лицензия Континентальная B
Решительность 7
Управление людьми 9
Мотивация 8
Дисциплина 6
Удовлетворённость
100%
Усталость
0%
Должность Скаут
Зарплата 53.5K в нед.
Контракт 14.03.2028

Производительность

Поведение Хорошее
Эффективность тренировок
35%
Развитие игроков
20%
Профилактика травм
45%
Тактическая реализация
50%

Недавние события

Начаты переговоры по контракту только что
Участвовал в селекционном совещании только что
Рекомендовал трансферную цель только что
Начаты переговоры по контракту 7 дн. назад
Начаты переговоры по контракту 7 дн. назад
Начаты переговоры по контракту 7 дн. назад
Начаты переговоры по контракту 7 дн. назад
Начаты переговоры по контракту 7 дн. назад

Текущее наблюдение

117
Игрок Клуб Статус Способность Уверенность Наблюдений Последнее наблюдение Последний голос
Amadou Sabo Suduva Активный 101 / 97 58% 1 24.01.2028 За
Juan Sebastián Herrera Deportivo La Guaira Активный 129 / 105 40% 1 10.01.2028 -
Lewis Morgan SuperSport United Активный 123 / 133 40% 1 10.01.2028 -
Moutir Chajia Suduva Активный 95 / 102 58% 1 02.01.2028 За
Balázs Tóth Blackburn Rovers Активный 151 / 127 40% 1 17.12.2027 -
George Wickens Lincoln City Отклонён 142 / 130 40% 1 17.12.2027 Нужно больше данных
Nahuel Galardi Maipú Активный 113 / 122 40% 1 16.12.2027 -
Roberto Ramírez Godoy Cruz Активный 113 / 114 40% 1 16.12.2027 -
Vadim Uljanov Akhmat Grozny Активный 114 / 110 40% 1 13.12.2027 Нужно больше данных
Killian Cahill Leyton Orient Активный 104 / 112 40% 1 13.12.2027 -
Nicolás Sumavil Platense Активный 120 / 121 40% 1 12.12.2027 -
Nicolas Schmid Portsmouth Активный 143 / 125 40% 1 12.12.2027 -
Richard Ludha MFK Skalica Активный 117 / 119 40% 1 11.12.2027 -
Juan Infante Atlético Tucumán Упущен 120 / 124 40% 2 10.12.2027 -
Emmanuel Gómez Riga Alvarado Активный 111 / 125 40% 2 10.12.2027 -
Mateo Mendoza Godoy Cruz Активный 143 / 134 40% 1 10.12.2027 -
Nahuel Suárez La Luz Активный 103 / 121 40% 1 10.12.2027 -
Delvin Alfonzo Deportivo Tachira Активный 123 / 110 40% 1 08.12.2027 -
Mateusz Bogusz Houston Dynamo Активный 133 / 132 40% 1 07.12.2027 -
Luciano Gondou CSKA Moscow Активный 127 / 128 40% 1 07.12.2027 -
Oliver Petersen Dinamo Batumi Активный 126 / 115 40% 1 06.12.2027 -
Yegor Teslenko Rubin Активный 116 / 124 40% 2 04.12.2027 -
Andy Polar Saburtalo Активный 105 / 107 40% 2 03.12.2027 -
Samuel Lucero Defensa y Justicia Активный 119 / 123 40% 1 03.12.2027 -
Hernán de la Fuente Instituto Активный 131 / 122 40% 1 03.12.2027 -
Alexandr Lomovitskiy Torpedo-BelAZ Активный 118 / 104 40% 1 02.12.2027 -
Gabriel Díaz Patronato Активный 118 / 123 40% 1 01.12.2027 -
Maksim Samorodov Akhmat Grozny Активный 123 / 122 40% 3 30.11.2027 -
Matías Tissera Instituto Активный 113 / 118 40% 1 30.11.2027 -
Sebastián Medina Tigre Активный 117 / 114 40% 1 29.11.2027 -
Kevin Méndez Dinamo Tbilisi Активный 107 / 102 40% 1 29.11.2027 -
Antony Alonso Deportivo Riestra Активный 140 / 128 40% 1 27.11.2027 -
Augusto Berrondo Tristán Suárez Активный 109 / 113 40% 1 27.11.2027 -
Arthur Sales Free State Stars Активный 118 / 122 40% 1 26.11.2027 -
Facundo Altamira Godoy Cruz Упущен 136 / 126 40% 2 25.11.2027 -
Brian Mansilla Akhmat Grozny Активный 123 / 117 40% 1 25.11.2027 -
Mohamed Konaté Nizhniy Novgorod Активный 111 / 119 40% 1 24.11.2027 -
Maximiliano Rueda Patronato Активный 97 / 113 40% 1 23.11.2027 -
Evgeniy Malashevich Dinamo Brest Активный 97 / 107 40% 2 22.11.2027 -
Facundo Taborda Racing Активный 105 / 105 40% 2 22.11.2027 -
Cristian Ramirez Llaneros Активный 119 / 121 40% 2 21.11.2027 -
Valentín Serrano Arsenal Активный 118 / 120 40% 2 21.11.2027 -
Ariel Schuartzman Torpedo Kutaisi Активный 105 / 97 40% 2 20.11.2027 -
Zach Hemming Chesterfield Активный 102 / 110 40% 1 20.11.2027 -
David Veliz Güemes Активный 121 / 108 40% 1 20.11.2027 -
Tiago Banega Gimnasia y Tiro Активный 121 / 109 40% 1 19.11.2027 -
Lautaro Villegas Banfield Активный 106 / 106 40% 1 17.11.2027 -
Gianluca Pugliese Güemes Активный 126 / 104 40% 1 16.11.2027 -
Vladislav Yatskevich BATE Активный 103 / 106 40% 1 15.11.2027 -
Gerónimo Tomasetti Temperley Активный 94 / 110 40% 1 12.11.2027 -
Facundo Heredia Patronato Активный 99 / 110 40% 2 11.11.2027 -
Thiago López Almagro Активный 92 / 103 40% 1 11.11.2027 -
Federico Versaci Talleres Активный 115 / 110 40% 1 09.11.2027 -
Diego Gaitán Maipú Активный 108 / 107 40% 2 06.11.2027 -
Iñaki Larthirigoyen San Telmo Активный 122 / 120 40% 1 29.10.2027 -
Lautaro Disanto Defensores Unidos Активный 103 / 114 40% 1 28.10.2027 -
Diogo Guzmán Montevideo City Torque Активный 103 / 126 40% 2 27.10.2027 -
Giorgi Beridze Dinamo Tbilisi Активный 118 / 111 40% 2 27.10.2027 -
Matías Machado Racing Активный 124 / 113 40% 1 25.10.2027 -
Enzo Martínez Almagro Активный 106 / 109 40% 1 24.10.2027 -
Duvan Rangel La Equidad Активный 150 / 141 40% 1 24.10.2027 -
Giorgi Arabidze Torpedo Kutaisi Активный 108 / 111 40% 1 17.10.2027 -
Imran Oulad Omar Dinamo Batumi Активный 113 / 121 40% 1 12.10.2027 -
Santiago Sala Güemes Активный 115 / 107 40% 1 11.10.2027 -
Manuel Duarte Barracas Central Активный 133 / 118 40% 1 09.10.2027 -
Yegor Kortsov Dinamo Brest Активный 113 / 113 40% 1 07.10.2027 -
Ángelo Lucena Carabobo Активный 108 / 106 40% 1 06.10.2027 -
Brian Orosco Godoy Cruz Активный 114 / 116 40% 2 05.10.2027 -
Dāvis Ikaunieks Siauliai Активный 102 / 103 58% 1 09.08.2027 За
Slobodan Tedić Akron Активный 107 / 104 40% 5 28.05.2027 -
Lorenzo Di Stefano Torres Активный 99 / 109 40% 1 27.05.2027 -
Giacomo Zecca Torres Активный 115 / 102 40% 3 26.05.2027 -
Federico Di Francesco Catanzaro Активный 109 / 114 40% 1 26.05.2027 -
Vladimir Khubulov Dinamo Makhachkala Активный 102 / 103 40% 2 24.05.2027 -
Georgy Melkadze Akhmat Grozny Активный 112 / 118 40% 4 23.05.2027 -
Vyacheslav Grulev Nizhniy Novgorod Активный 113 / 115 40% 6 23.05.2027 -
François Kamano Sochi Упущен 117 / 111 40% 2 23.05.2027 -
Amur Kalmykov Spartak Kostroma Активный 101 / 102 40% 4 20.05.2027 -
Alexandr Yushin Torpedo Moscow Активный 111 / 98 40% 4 20.05.2027 -
Hany Mukhtar Spezia Активный 138 / 125 40% 2 20.05.2027 -
Martin Sekulić Ural Активный 111 / 115 40% 6 18.05.2027 -
Camillo Tavernelli Arezzo Активный 125 / 124 40% 1 15.05.2027 -
Chinonso Offor Baltika Активный 103 / 114 40% 3 06.05.2027 -
Evidence Makgopa Orlando Pirates Активный 122 / 119 40% 2 04.05.2027 -
Ruslan Apekov Torpedo Moscow Активный 106 / 105 40% 4 03.05.2027 -
Chinedu Geoffrey Krylya Sovetov Активный 120 / 112 40% 1 03.05.2027 -
Lamine Diakité Djoliba Активный 97 / 97 40% 3 01.05.2027 -
Dmitry Tsypchenko Torpedo Moscow Активный 112 / 102 40% 1 01.05.2027 -
Amar Rahmanović Krylya Sovetov Активный 116 / 109 40% 3 30.04.2027 -
Vladislav Sarveli Nizhniy Novgorod Активный 118 / 108 40% 5 29.04.2027 -
Robert Murić Floriana Активный 107 / 113 40% 2 27.04.2027 -
Nicolás Andereggen Ethnikos Achnas Активный 110 / 121 40% 1 25.04.2027 -
Tenton Yenne Baltika Активный 111 / 116 40% 2 23.04.2027 -
Etiosa Ighodaro Kaizer Chiefs Активный 129 / 99 40% 1 19.04.2027 -
Mikhail Ignatov Sochi Активный 124 / 115 40% 2 17.04.2027 -
Fortune Bassey Djoliba Активный 106 / 113 40% 1 10.04.2027 -
Aaron Drinan Swindon Town Активный 120 / 95 40% 1 10.04.2027 -
Pedro Marques Apollon Активный 104 / 121 40% 1 09.04.2027 -
Gamid Agalarov Dinamo Makhachkala Активный 111 / 107 40% 1 09.04.2027 -
Djibril Coulibaly Real Bamako Активный 106 / 87 40% 1 03.04.2027 -
David Davidyan Rotor Активный 104 / 92 40% 1 30.03.2027 -
Brayan León Mamelodi Sundowns Активный 126 / 121 40% 2 19.03.2027 -
Job Ochieng Real Sociedad Активный 94 / 100 40% 1 15.03.2027 -
Kamran Aliev SKA Khabarovsk Активный 98 / 94 40% 1 24.02.2027 -
David Karaev KAMAZ Активный 90 / 95 40% 1 09.02.2027 -
Kenan Dervišagić Floriana Активный 111 / 101 40% 1 03.02.2027 -
Maxime Sivis Orenburg Активный 121 / 112 40% 2 27.01.2027 -
Robert Mejía Orenburg Активный 111 / 114 40% 1 27.01.2027 -
Vikintas Valskis Utenis Активный 78 / 82 58% 1 11.01.2027 -
Alexandr Ivankov Torpedo Moscow Активный 118 / 102 40% 1 04.01.2027 -
Fedor Černych Kauno Zalgiris Активный 107 / 100 58% 1 03.01.2027 -
Mingiyan Beveev Baltika Активный 103 / 115 40% 1 31.12.2026 -
Nathan Gassama Baltika Упущен 108 / 111 40% 1 08.12.2026 Нужно больше данных
Leo Goglichidze Rodina Упущен 114 / 116 40% 1 08.12.2026 -
Léo Cordeiro Ural Упущен 104 / 104 40% 1 18.11.2026 -
Miloš Brnović Arsenal Tula Активный 120 / 108 40% 1 18.11.2026 -
Arvydas Kazlauskas Utenis Активный 81 / 82 58% 1 24.08.2026 -